sensor_id;sensor_type;location;lat;lon;timestamp;temperature;humidity
46652;DHT22;32377;52.182;5.398;2023-08-08T00:01:57;14.50;99.90
46652;DHT22;32377;52.182;5.398;2023-08-08T00:04:23;14.50;99.90
46652;DHT22;32377;52.182;5.398;2023-08-08T00:06:48;14.50;99.90
46652;DHT22;32377;52.182;5.398;2023-08-08T00:09:14;14.60;99.90
46652;DHT22;32377;52.182;5.398;2023-08-08T00:11:39;14.60;99.90
46652;DHT22;32377;52.182;5.398;2023-08-08T00:14:05;14.60;99.90
46652;DHT22;32377;52.182;5.398;2023-08-08T00:16:31;14.60;99.90
46652;DHT22;32377;52.182;5.398;2023-08-08T00:18:57;14.60;99.90
46652;DHT22;32377;52.182;5.398;2023-08-08T00:21:22;14.60;99.90
46652;DHT22;32377;52.182;5.398;2023-08-08T00:23:48;14.70;99.90
46652;DHT22;32377;52.182;5.398;2023-08-08T00:26:14;14.60;99.90
46652;DHT22;32377;52.182;5.398;2023-08-08T00:28:39;14.60;99.90
46652;DHT22;32377;52.182;5.398;2023-08-08T00:31:05;14.80;99.90
46652;DHT22;32377;52.182;5.398;2023-08-08T00:33:31;14.70;99.90
46652;DHT22;32377;52.182;5.398;2023-08-08T00:35:57;14.70;99.90
46652;DHT22;32377;52.182;5.398;2023-08-08T00:38:22;14.80;99.90
46652;DHT22;32377;52.182;5.398;2023-08-08T00:40:48;14.70;99.90
46652;DHT22;32377;52.182;5.398;2023-08-08T00:43:13;14.80;99.90
46652;DHT22;32377;52.182;5.398;2023-08-08T00:45:42;14.80;99.90
46652;DHT22;32377;52.182;5.398;2023-08-08T00:48:08;14.80;99.90
46652;DHT22;32377;52.182;5.398;2023-08-08T00:50:34;14.80;99.90
46652;DHT22;32377;52.182;5.398;2023-08-08T00:53:04;14.80;99.90
46652;DHT22;32377;52.182;5.398;2023-08-08T00:55:30;14.80;99.90
46652;DHT22;32377;52.182;5.398;2023-08-08T00:57:56;14.80;99.90
46652;DHT22;32377;52.182;5.398;2023-08-08T01:00:22;14.80;99.90
46652;DHT22;32377;52.182;5.398;2023-08-08T01:02:48;14.80;99.90
46652;DHT22;32377;52.182;5.398;2023-08-08T01:05:13;14.90;99.90
46652;DHT22;32377;52.182;5.398;2023-08-08T01:08:04;14.90;99.90
46652;DHT22;32377;52.182;5.398;2023-08-08T01:10:33;14.80;99.90
46652;DHT22;32377;52.182;5.398;2023-08-08T01:13:04;14.90;99.90
46652;DHT22;32377;52.182;5.398;2023-08-08T01:15:32;14.90;99.90
46652;DHT22;32377;52.182;5.398;2023-08-08T01:18:03;14.90;99.90
46652;DHT22;32377;52.182;5.398;2023-08-08T01:20:30;14.90;99.90
46652;DHT22;32377;52.182;5.398;2023-08-08T01:23:12;14.90;99.90
46652;DHT22;32377;52.182;5.398;2023-08-08T01:25:39;14.90;99.90
46652;DHT22;32377;52.182;5.398;2023-08-08T01:28:06;14.80;99.90
46652;DHT22;32377;52.182;5.398;2023-08-08T01:30:31;14.90;99.90
46652;DHT22;32377;52.182;5.398;2023-08-08T01:32:57;14.90;99.90
46652;DHT22;32377;52.182;5.398;2023-08-08T01:35:26;14.90;99.90
46652;DHT22;32377;52.182;5.398;2023-08-08T01:38:04;14.90;99.90
46652;DHT22;32377;52.182;5.398;2023-08-08T01:40:33;14.90;99.90
46652;DHT22;32377;52.182;5.398;2023-08-08T01:42:59;14.90;99.90
46652;DHT22;32377;52.182;5.398;2023-08-08T01:45:25;15.00;99.90
46652;DHT22;32377;52.182;5.398;2023-08-08T01:47:51;15.00;99.90
46652;DHT22;32377;52.182;5.398;2023-08-08T01:50:17;14.90;99.90
46652;DHT22;32377;52.182;5.398;2023-08-08T01:52:43;14.90;99.90
46652;DHT22;32377;52.182;5.398;2023-08-08T01:55:09;14.90;99.90
46652;DHT22;32377;52.182;5.398;2023-08-08T01:57:35;14.90;99.90
46652;DHT22;32377;52.182;5.398;2023-08-08T02:00:00;14.90;99.90
46652;DHT22;32377;52.182;5.398;2023-08-08T02:02:26;14.90;99.90
46652;DHT22;32377;52.182;5.398;2023-08-08T02:04:52;14.90;99.90
46652;DHT22;32377;52.182;5.398;2023-08-08T02:07:17;15.00;99.90
46652;DHT22;32377;52.182;5.398;2023-08-08T02:09:43;15.00;99.90
46652;DHT22;32377;52.182;5.398;2023-08-08T02:12:11;15.00;99.90
46652;DHT22;32377;52.182;5.398;2023-08-08T02:14:37;15.00;99.90
46652;DHT22;32377;52.182;5.398;2023-08-08T02:17:03;15.00;99.90
46652;DHT22;32377;52.182;5.398;2023-08-08T02:19:28;14.90;99.90
46652;DHT22;32377;52.182;5.398;2023-08-08T02:21:54;14.90;99.90
46652;DHT22;32377;52.182;5.398;2023-08-08T02:24:20;14.80;99.90
46652;DHT22;32377;52.182;5.398;2023-08-08T02:26:46;14.80;99.90
46652;DHT22;32377;52.182;5.398;2023-08-08T02:29:11;14.80;99.90
46652;DHT22;32377;52.182;5.398;2023-08-08T02:31:37;14.70;99.90
46652;DHT22;32377;52.182;5.398;2023-08-08T02:34:02;14.70;99.90
46652;DHT22;32377;52.182;5.398;2023-08-08T02:36:28;14.60;99.90
46652;DHT22;32377;52.182;5.398;2023-08-08T02:38:54;14.60;99.90
46652;DHT22;32377;52.182;5.398;2023-08-08T02:41:20;14.50;99.90
46652;DHT22;32377;52.182;5.398;2023-08-08T02:43:46;14.50;99.90
46652;DHT22;32377;52.182;5.398;2023-08-08T02:46:11;14.40;99.90
46652;DHT22;32377;52.182;5.398;2023-08-08T02:48:37;14.50;99.90
46652;DHT22;32377;52.182;5.398;2023-08-08T02:51:03;14.50;99.90
46652;DHT22;32377;52.182;5.398;2023-08-08T02:53:28;14.40;99.90
46652;DHT22;32377;52.182;5.398;2023-08-08T02:55:54;14.40;99.90
46652;DHT22;32377;52.182;5.398;2023-08-08T02:58:20;14.40;99.90
46652;DHT22;32377;52.182;5.398;2023-08-08T03:00:45;14.40;99.90
46652;DHT22;32377;52.182;5.398;2023-08-08T03:03:11;14.40;99.90
46652;DHT22;32377;52.182;5.398;2023-08-08T03:05:36;14.40;99.90
46652;DHT22;32377;52.182;5.398;2023-08-08T03:08:02;14.50;99.90
46652;DHT22;32377;52.182;5.398;2023-08-08T03:10:28;14.50;99.90
46652;DHT22;32377;52.182;5.398;2023-08-08T03:12:53;14.50;99.90
46652;DHT22;32377;52.182;5.398;2023-08-08T03:15:19;14.50;99.90
46652;DHT22;32377;52.182;5.398;2023-08-08T03:17:45;14.50;99.90
46652;DHT22;32377;52.182;5.398;2023-08-08T03:20:11;14.40;99.90
46652;DHT22;32377;52.182;5.398;2023-08-08T03:22:37;14.40;99.90
46652;DHT22;32377;52.182;5.398;2023-08-08T03:25:03;14.40;99.90
46652;DHT22;32377;52.182;5.398;2023-08-08T03:27:30;14.50;99.90
46652;DHT22;32377;52.182;5.398;2023-08-08T03:29:55;14.40;99.90
46652;DHT22;32377;52.182;5.398;2023-08-08T03:32:22;14.40;99.90
46652;DHT22;32377;52.182;5.398;2023-08-08T03:34:47;14.40;99.90
46652;DHT22;32377;52.182;5.398;2023-08-08T03:37:13;14.40;99.90
46652;DHT22;32377;52.182;5.398;2023-08-08T03:39:39;14.40;99.90
46652;DHT22;32377;52.182;5.398;2023-08-08T03:42:05;14.40;99.90
46652;DHT22;32377;52.182;5.398;2023-08-08T03:44:30;14.40;99.90
46652;DHT22;32377;52.182;5.398;2023-08-08T03:46:56;14.40;99.90
46652;DHT22;32377;52.182;5.398;2023-08-08T03:49:22;14.30;99.90
46652;DHT22;32377;52.182;5.398;2023-08-08T03:51:47;14.30;99.90
46652;DHT22;32377;52.182;5.398;2023-08-08T03:54:14;14.20;99.90
46652;DHT22;32377;52.182;5.398;2023-08-08T03:58:59;14.20;99.90
46652;DHT22;32377;52.182;5.398;2023-08-08T04:01:25;14.20;99.90
46652;DHT22;32377;52.182;5.398;2023-08-08T04:03:51;14.10;99.90
46652;DHT22;32377;52.182;5.398;2023-08-08T04:06:16;14.10;99.90
46652;DHT22;32377;52.182;5.398;2023-08-08T04:08:42;14.20;99.90
46652;DHT22;32377;52.182;5.398;2023-08-08T04:11:08;14.20;99.90
46652;DHT22;32377;52.182;5.398;2023-08-08T04:13:33;14.20;99.90
46652;DHT22;32377;52.182;5.398;2023-08-08T04:16:00;14.20;99.90
46652;DHT22;32377;52.182;5.398;2023-08-08T04:18:26;14.10;99.90
46652;DHT22;32377;52.182;5.398;2023-08-08T04:20:51;14.20;99.90
46652;DHT22;32377;52.182;5.398;2023-08-08T04:23:17;14.10;99.90
46652;DHT22;32377;52.182;5.398;2023-08-08T04:25:42;14.10;99.90
46652;DHT22;32377;52.182;5.398;2023-08-08T04:28:08;14.00;99.90
46652;DHT22;32377;52.182;5.398;2023-08-08T04:30:34;14.00;99.90
46652;DHT22;32377;52.182;5.398;2023-08-08T04:33:00;13.90;99.90
46652;DHT22;32377;52.182;5.398;2023-08-08T04:35:26;13.90;99.90
46652;DHT22;32377;52.182;5.398;2023-08-08T04:37:52;13.90;99.90
46652;DHT22;32377;52.182;5.398;2023-08-08T04:40:17;13.90;99.90
46652;DHT22;32377;52.182;5.398;2023-08-08T04:42:43;13.90;99.90
46652;DHT22;32377;52.182;5.398;2023-08-08T04:45:09;13.90;99.90
46652;DHT22;32377;52.182;5.398;2023-08-08T04:47:35;14.00;99.90
46652;DHT22;32377;52.182;5.398;2023-08-08T04:50:00;14.00;99.90
46652;DHT22;32377;52.182;5.398;2023-08-08T04:52:26;14.10;99.90
46652;DHT22;32377;52.182;5.398;2023-08-08T04:54:51;14.10;99.90
46652;DHT22;32377;52.182;5.398;2023-08-08T04:57:17;14.10;99.90
46652;DHT22;32377;52.182;5.398;2023-08-08T04:59:43;14.10;99.90
46652;DHT22;32377;52.182;5.398;2023-08-08T05:02:08;14.10;99.90
46652;DHT22;32377;52.182;5.398;2023-08-08T05:04:34;14.10;99.90
46652;DHT22;32377;52.182;5.398;2023-08-08T05:06:59;14.10;99.90
46652;DHT22;32377;52.182;5.398;2023-08-08T05:09:25;14.10;99.90
46652;DHT22;32377;52.182;5.398;2023-08-08T05:11:54;14.10;99.90
46652;DHT22;32377;52.182;5.398;2023-08-08T05:14:19;14.10;99.90
46652;DHT22;32377;52.182;5.398;2023-08-08T05:16:45;14.10;99.90
46652;DHT22;32377;52.182;5.398;2023-08-08T05:19:12;14.10;99.90
46652;DHT22;32377;52.182;5.398;2023-08-08T05:21:40;14.10;99.90
46652;DHT22;32377;52.182;5.398;2023-08-08T05:24:06;14.10;99.90
46652;DHT22;32377;52.182;5.398;2023-08-08T05:26:31;14.10;99.90
46652;DHT22;32377;52.182;5.398;2023-08-08T05:28:57;14.10;99.90
46652;DHT22;32377;52.182;5.398;2023-08-08T05:31:23;14.10;99.90
46652;DHT22;32377;52.182;5.398;2023-08-08T05:33:49;14.10;99.90
46652;DHT22;32377;52.182;5.398;2023-08-08T05:36:14;14.10;99.90
46652;DHT22;32377;52.182;5.398;2023-08-08T05:38:40;14.10;99.90
46652;DHT22;32377;52.182;5.398;2023-08-08T05:41:07;14.20;99.90
46652;DHT22;32377;52.182;5.398;2023-08-08T05:43:33;14.30;99.90
46652;DHT22;32377;52.182;5.398;2023-08-08T05:45:58;14.40;99.90
46652;DHT22;32377;52.182;5.398;2023-08-08T05:48:24;14.50;99.90
46652;DHT22;32377;52.182;5.398;2023-08-08T05:50:49;14.60;99.90
46652;DHT22;32377;52.182;5.398;2023-08-08T05:53:15;14.60;99.90
46652;DHT22;32377;52.182;5.398;2023-08-08T05:55:41;14.80;99.90
46652;DHT22;32377;52.182;5.398;2023-08-08T05:58:10;14.90;99.90
46652;DHT22;32377;52.182;5.398;2023-08-08T06:00:35;14.90;99.90
46652;DHT22;32377;52.182;5.398;2023-08-08T06:03:01;15.00;99.90
46652;DHT22;32377;52.182;5.398;2023-08-08T06:05:27;15.10;99.90
46652;DHT22;32377;52.182;5.398;2023-08-08T06:07:53;15.10;99.90
46652;DHT22;32377;52.182;5.398;2023-08-08T06:10:21;15.20;99.90
46652;DHT22;32377;52.182;5.398;2023-08-08T06:12:47;15.30;99.90
46652;DHT22;32377;52.182;5.398;2023-08-08T06:15:13;15.30;99.90
46652;DHT22;32377;52.182;5.398;2023-08-08T06:17:38;15.40;99.90
46652;DHT22;32377;52.182;5.398;2023-08-08T06:20:05;15.50;99.90
46652;DHT22;32377;52.182;5.398;2023-08-08T06:22:32;15.60;99.90
46652;DHT22;32377;52.182;5.398;2023-08-08T06:24:57;15.60;99.90
46652;DHT22;32377;52.182;5.398;2023-08-08T06:27:23;15.70;99.90
46652;DHT22;32377;52.182;5.398;2023-08-08T06:29:49;15.80;99.90
46652;DHT22;32377;52.182;5.398;2023-08-08T06:32:14;15.90;99.90
46652;DHT22;32377;52.182;5.398;2023-08-08T06:34:40;16.00;99.90
46652;DHT22;32377;52.182;5.398;2023-08-08T06:37:06;16.00;99.90
46652;DHT22;32377;52.182;5.398;2023-08-08T06:39:31;16.00;99.90
46652;DHT22;32377;52.182;5.398;2023-08-08T06:41:57;16.10;99.90
46652;DHT22;32377;52.182;5.398;2023-08-08T06:44:23;16.20;99.90
46652;DHT22;32377;52.182;5.398;2023-08-08T06:46:48;16.20;99.90
46652;DHT22;32377;52.182;5.398;2023-08-08T06:49:14;16.20;99.90
46652;DHT22;32377;52.182;5.398;2023-08-08T06:51:39;16.30;99.90
46652;DHT22;32377;52.182;5.398;2023-08-08T06:54:05;16.40;99.90
46652;DHT22;32377;52.182;5.398;2023-08-08T06:56:31;16.40;99.90
46652;DHT22;32377;52.182;5.398;2023-08-08T06:58:57;16.40;99.90
46652;DHT22;32377;52.182;5.398;2023-08-08T07:01:22;16.50;99.90
46652;DHT22;32377;52.182;5.398;2023-08-08T07:03:48;16.60;99.90
46652;DHT22;32377;52.182;5.398;2023-08-08T07:06:16;16.70;99.90
46652;DHT22;32377;52.182;5.398;2023-08-08T07:08:42;16.70;99.90
46652;DHT22;32377;52.182;5.398;2023-08-08T07:11:08;16.70;99.90
46652;DHT22;32377;52.182;5.398;2023-08-08T07:13:33;16.80;99.90
46652;DHT22;32377;52.182;5.398;2023-08-08T07:15:59;16.80;99.90
46652;DHT22;32377;52.182;5.398;2023-08-08T07:18:25;17.00;99.90
46652;DHT22;32377;52.182;5.398;2023-08-08T07:20:50;17.10;99.90
46652;DHT22;32377;52.182;5.398;2023-08-08T07:23:16;17.20;99.90
46652;DHT22;32377;52.182;5.398;2023-08-08T07:25:42;17.20;99.90
46652;DHT22;32377;52.182;5.398;2023-08-08T07:28:08;17.20;99.90
46652;DHT22;32377;52.182;5.398;2023-08-08T07:30:34;17.20;99.90
46652;DHT22;32377;52.182;5.398;2023-08-08T07:33:00;17.30;99.90
46652;DHT22;32377;52.182;5.398;2023-08-08T07:35:25;17.40;99.90
46652;DHT22;32377;52.182;5.398;2023-08-08T07:37:51;17.40;99.90
46652;DHT22;32377;52.182;5.398;2023-08-08T07:40:17;17.40;99.90
46652;DHT22;32377;52.182;5.398;2023-08-08T07:42:44;17.40;99.90
46652;DHT22;32377;52.182;5.398;2023-08-08T07:45:10;17.60;99.90
46652;DHT22;32377;52.182;5.398;2023-08-08T07:47:36;17.60;99.90
46652;DHT22;32377;52.182;5.398;2023-08-08T07:50:02;17.70;99.90
46652;DHT22;32377;52.182;5.398;2023-08-08T07:52:27;17.80;99.90
46652;DHT22;32377;52.182;5.398;2023-08-08T07:54:53;17.80;99.90
46652;DHT22;32377;52.182;5.398;2023-08-08T07:57:19;18.00;99.90
46652;DHT22;32377;52.182;5.398;2023-08-08T07:59:44;18.00;99.90
46652;DHT22;32377;52.182;5.398;2023-08-08T08:02:10;17.90;99.90
46652;DHT22;32377;52.182;5.398;2023-08-08T08:04:36;17.90;99.90
46652;DHT22;32377;52.182;5.398;2023-08-08T08:07:02;17.90;99.90
46652;DHT22;32377;52.182;5.398;2023-08-08T08:09:28;17.90;99.90
46652;DHT22;32377;52.182;5.398;2023-08-08T08:11:54;17.90;99.90
46652;DHT22;32377;52.182;5.398;2023-08-08T08:14:21;17.80;99.90
46652;DHT22;32377;52.182;5.398;2023-08-08T08:16:46;17.90;99.90
46652;DHT22;32377;52.182;5.398;2023-08-08T08:19:12;18.00;99.90
46652;DHT22;32377;52.182;5.398;2023-08-08T08:21:38;18.10;99.90
46652;DHT22;32377;52.182;5.398;2023-08-08T08:24:03;18.10;99.90
46652;DHT22;32377;52.182;5.398;2023-08-08T08:26:29;18.00;99.70
46652;DHT22;32377;52.182;5.398;2023-08-08T08:28:55;18.00;99.90
46652;DHT22;32377;52.182;5.398;2023-08-08T08:31:20;18.10;98.40
46652;DHT22;32377;52.182;5.398;2023-08-08T08:33:46;18.10;98.20
46652;DHT22;32377;52.182;5.398;2023-08-08T08:36:12;18.20;99.80
46652;DHT22;32377;52.182;5.398;2023-08-08T08:38:38;18.40;98.90
46652;DHT22;32377;52.182;5.398;2023-08-08T08:41:04;18.50;97.00
46652;DHT22;32377;52.182;5.398;2023-08-08T08:43:33;18.70;97.80
46652;DHT22;32377;52.182;5.398;2023-08-08T08:46:00;18.80;96.60
46652;DHT22;32377;52.182;5.398;2023-08-08T08:48:29;18.90;96.40
46652;DHT22;32377;52.182;5.398;2023-08-08T08:50:57;18.90;95.30
46652;DHT22;32377;52.182;5.398;2023-08-08T08:53:23;18.80;96.10
46652;DHT22;32377;52.182;5.398;2023-08-08T08:55:49;18.70;96.40
46652;DHT22;32377;52.182;5.398;2023-08-08T08:58:15;18.70;96.00
46652;DHT22;32377;52.182;5.398;2023-08-08T09:00:44;18.80;95.70
46652;DHT22;32377;52.182;5.398;2023-08-08T09:03:12;18.80;95.40
46652;DHT22;32377;52.182;5.398;2023-08-08T09:05:39;18.90;95.10
46652;DHT22;32377;52.182;5.398;2023-08-08T09:08:07;18.70;94.70
46652;DHT22;32377;52.182;5.398;2023-08-08T09:10:33;18.70;95.10
46652;DHT22;32377;52.182;5.398;2023-08-08T09:13:00;18.80;95.10
46652;DHT22;32377;52.182;5.398;2023-08-08T09:15:32;18.80;95.50
46652;DHT22;32377;52.182;5.398;2023-08-08T09:17:59;18.90;95.20
46652;DHT22;32377;52.182;5.398;2023-08-08T09:20:26;18.80;95.40
46652;DHT22;32377;52.182;5.398;2023-08-08T09:22:53;18.90;96.00
46652;DHT22;32377;52.182;5.398;2023-08-08T09:25:19;18.60;94.90
46652;DHT22;32377;52.182;5.398;2023-08-08T09:27:45;18.60;95.40
46652;DHT22;32377;52.182;5.398;2023-08-08T09:30:11;18.80;96.20
46652;DHT22;32377;52.182;5.398;2023-08-08T09:32:37;18.90;95.50
46652;DHT22;32377;52.182;5.398;2023-08-08T09:35:03;19.10;96.00
46652;DHT22;32377;52.182;5.398;2023-08-08T09:37:30;19.10;94.90
46652;DHT22;32377;52.182;5.398;2023-08-08T09:39:59;19.20;93.90
46652;DHT22;32377;52.182;5.398;2023-08-08T09:42:28;19.10;94.70
46652;DHT22;32377;52.182;5.398;2023-08-08T09:44:56;19.20;94.60
46652;DHT22;32377;52.182;5.398;2023-08-08T09:47:22;19.00;94.20
46652;DHT22;32377;52.182;5.398;2023-08-08T09:49:49;19.00;94.40
46652;DHT22;32377;52.182;5.398;2023-08-08T09:52:15;19.10;95.60
46652;DHT22;32377;52.182;5.398;2023-08-08T09:54:41;19.20;93.80
46652;DHT22;32377;52.182;5.398;2023-08-08T09:59:02;19.20;92.80
46652;DHT22;32377;52.182;5.398;2023-08-08T10:01:30;19.20;93.20
46652;DHT22;32377;52.182;5.398;2023-08-08T10:03:56;19.20;93.70
46652;DHT22;32377;52.182;5.398;2023-08-08T10:06:23;19.40;94.10
46652;DHT22;32377;52.182;5.398;2023-08-08T10:08:49;19.40;93.10
46652;DHT22;32377;52.182;5.398;2023-08-08T10:11:15;19.30;93.50
46652;DHT22;32377;52.182;5.398;2023-08-08T10:13:53;19.20;92.10
46652;DHT22;32377;52.182;5.398;2023-08-08T10:16:19;19.10;92.90
46652;DHT22;32377;52.182;5.398;2023-08-08T10:18:46;19.20;92.80
46652;DHT22;32377;52.182;5.398;2023-08-08T10:21:12;19.40;92.80
46652;DHT22;32377;52.182;5.398;2023-08-08T10:23:39;19.60;92.60
46652;DHT22;32377;52.182;5.398;2023-08-08T10:26:16;19.70;92.30
46652;DHT22;32377;52.182;5.398;2023-08-08T10:28:53;19.70;91.90
46652;DHT22;32377;52.182;5.398;2023-08-08T10:31:21;19.90;91.70
46652;DHT22;32377;52.182;5.398;2023-08-08T10:33:47;20.10;91.30
46652;DHT22;32377;52.182;5.398;2023-08-08T10:36:13;20.10;91.00
46652;DHT22;32377;52.182;5.398;2023-08-08T10:38:46;20.20;91.80
46652;DHT22;32377;52.182;5.398;2023-08-08T10:41:21;20.10;89.90
46652;DHT22;32377;52.182;5.398;2023-08-08T10:43:52;19.90;91.00
46652;DHT22;32377;52.182;5.398;2023-08-08T10:46:29;19.70;90.30
46652;DHT22;32377;52.182;5.398;2023-08-08T10:49:00;19.80;90.50
46652;DHT22;32377;52.182;5.398;2023-08-08T10:51:43;19.60;90.20
46652;DHT22;32377;52.182;5.398;2023-08-08T10:54:23;19.60;90.90
46652;DHT22;32377;52.182;5.398;2023-08-08T10:56:54;19.60;91.20
46652;DHT22;32377;52.182;5.398;2023-08-08T10:59:36;19.70;91.20
46652;DHT22;32377;52.182;5.398;2023-08-08T11:02:02;19.80;91.50
46652;DHT22;32377;52.182;5.398;2023-08-08T11:04:28;19.90;90.40
46652;DHT22;32377;52.182;5.398;2023-08-08T11:06:55;20.00;90.70
46652;DHT22;32377;52.182;5.398;2023-08-08T11:09:22;20.10;90.80
46652;DHT22;32377;52.182;5.398;2023-08-08T11:11:48;20.00;90.80
46652;DHT22;32377;52.182;5.398;2023-08-08T11:14:16;20.00;90.60
46652;DHT22;32377;52.182;5.398;2023-08-08T11:16:43;20.10;90.50
46652;DHT22;32377;52.182;5.398;2023-08-08T11:19:09;20.10;90.80
46652;DHT22;32377;52.182;5.398;2023-08-08T11:21:41;19.80;89.70
46652;DHT22;32377;52.182;5.398;2023-08-08T11:24:08;19.80;90.10
46652;DHT22;32377;52.182;5.398;2023-08-08T11:26:35;19.80;90.40
46652;DHT22;32377;52.182;5.398;2023-08-08T11:29:03;19.80;90.70
46652;DHT22;32377;52.182;5.398;2023-08-08T11:31:29;19.80;90.70
46652;DHT22;32377;52.182;5.398;2023-08-08T11:33:55;19.80;91.30
46652;DHT22;32377;52.182;5.398;2023-08-08T11:36:22;20.00;91.00
46652;DHT22;32377;52.182;5.398;2023-08-08T11:38:50;20.20;91.10
46652;DHT22;32377;52.182;5.398;2023-08-08T11:41:18;20.40;91.50
46652;DHT22;32377;52.182;5.398;2023-08-08T11:43:45;20.60;90.70
46652;DHT22;32377;52.182;5.398;2023-08-08T11:46:15;20.50;90.90
46652;DHT22;32377;52.182;5.398;2023-08-08T11:48:41;20.60;90.60
46652;DHT22;32377;52.182;5.398;2023-08-08T11:51:07;20.70;90.80
46652;DHT22;32377;52.182;5.398;2023-08-08T11:53:34;20.70;89.90
46652;DHT22;32377;52.182;5.398;2023-08-08T11:56:02;20.70;90.10
46652;DHT22;32377;52.182;5.398;2023-08-08T11:58:29;20.40;90.40
46652;DHT22;32377;52.182;5.398;2023-08-08T12:00:56;20.30;91.40
46652;DHT22;32377;52.182;5.398;2023-08-08T12:03:24;20.20;91.40
46652;DHT22;32377;52.182;5.398;2023-08-08T12:05:50;20.10;91.40
46652;DHT22;32377;52.182;5.398;2023-08-08T12:08:19;20.00;91.20
46652;DHT22;32377;52.182;5.398;2023-08-08T12:10:50;20.10;91.20
46652;DHT22;32377;52.182;5.398;2023-08-08T12:13:22;20.20;90.70
46652;DHT22;32377;52.182;5.398;2023-08-08T12:15:47;20.30;91.90
46652;DHT22;32377;52.182;5.398;2023-08-08T12:18:16;20.40;91.50
46652;DHT22;32377;52.182;5.398;2023-08-08T12:20:46;20.50;91.70
46652;DHT22;32377;52.182;5.398;2023-08-08T12:23:12;20.40;88.70
46652;DHT22;32377;52.182;5.398;2023-08-08T12:25:38;20.20;90.20
46652;DHT22;32377;52.182;5.398;2023-08-08T12:28:04;20.10;90.40
46652;DHT22;32377;52.182;5.398;2023-08-08T12:30:30;20.10;90.90
46652;DHT22;32377;52.182;5.398;2023-08-08T12:32:57;20.10;91.00
46652;DHT22;32377;52.182;5.398;2023-08-08T12:35:22;19.90;91.00
46652;DHT22;32377;52.182;5.398;2023-08-08T12:37:48;19.90;91.30
46652;DHT22;32377;52.182;5.398;2023-08-08T12:40:13;20.00;91.90
46652;DHT22;32377;52.182;5.398;2023-08-08T12:42:39;20.10;91.00
46652;DHT22;32377;52.182;5.398;2023-08-08T12:45:06;20.00;90.50
46652;DHT22;32377;52.182;5.398;2023-08-08T12:47:32;19.90;91.30
46652;DHT22;32377;52.182;5.398;2023-08-08T12:49:58;20.00;91.40
46652;DHT22;32377;52.182;5.398;2023-08-08T12:52:23;20.20;91.50
46652;DHT22;32377;52.182;5.398;2023-08-08T12:54:49;20.40;90.70
46652;DHT22;32377;52.182;5.398;2023-08-08T12:57:15;20.60;91.20
46652;DHT22;32377;52.182;5.398;2023-08-08T12:59:40;20.90;90.20
46652;DHT22;32377;52.182;5.398;2023-08-08T13:02:07;20.90;90.10
46652;DHT22;32377;52.182;5.398;2023-08-08T13:04:33;20.60;89.60
46652;DHT22;32377;52.182;5.398;2023-08-08T13:06:59;20.30;88.40
46652;DHT22;32377;52.182;5.398;2023-08-08T13:09:24;20.40;89.30
46652;DHT22;32377;52.182;5.398;2023-08-08T13:11:50;20.70;89.70
46652;DHT22;32377;52.182;5.398;2023-08-08T13:14:15;20.70;89.80
46652;DHT22;32377;52.182;5.398;2023-08-08T13:16:41;20.70;88.20
46652;DHT22;32377;52.182;5.398;2023-08-08T13:19:07;20.60;89.30
46652;DHT22;32377;52.182;5.398;2023-08-08T13:21:33;20.70;90.60
46652;DHT22;32377;52.182;5.398;2023-08-08T13:23:58;20.90;89.50
46652;DHT22;32377;52.182;5.398;2023-08-08T13:26:24;20.90;90.00
46652;DHT22;32377;52.182;5.398;2023-08-08T13:28:49;20.50;87.20
46652;DHT22;32377;52.182;5.398;2023-08-08T13:31:16;20.10;88.60
46652;DHT22;32377;52.182;5.398;2023-08-08T13:33:41;20.20;89.90
46652;DHT22;32377;52.182;5.398;2023-08-08T13:36:07;20.40;90.20
46652;DHT22;32377;52.182;5.398;2023-08-08T13:38:33;20.40;90.00
46652;DHT22;32377;52.182;5.398;2023-08-08T13:40:58;20.20;88.50
46652;DHT22;32377;52.182;5.398;2023-08-08T13:43:26;20.20;89.20
46652;DHT22;32377;52.182;5.398;2023-08-08T13:45:52;20.00;89.20
46652;DHT22;32377;52.182;5.398;2023-08-08T13:48:17;20.20;90.50
46652;DHT22;32377;52.182;5.398;2023-08-08T13:50:43;20.30;90.00
46652;DHT22;32377;52.182;5.398;2023-08-08T13:53:09;20.20;88.50
46652;DHT22;32377;52.182;5.398;2023-08-08T13:55:34;20.20;89.50
46652;DHT22;32377;52.182;5.398;2023-08-08T13:58:05;20.20;90.40
46652;DHT22;32377;52.182;5.398;2023-08-08T14:00:31;20.20;89.90
46652;DHT22;32377;52.182;5.398;2023-08-08T14:03:01;20.40;90.10
46652;DHT22;32377;52.182;5.398;2023-08-08T14:05:27;20.50;90.20
46652;DHT22;32377;52.182;5.398;2023-08-08T14:07:54;20.40;89.70
46652;DHT22;32377;52.182;5.398;2023-08-08T14:10:20;20.40;90.50
46652;DHT22;32377;52.182;5.398;2023-08-08T14:12:45;20.00;91.20
46652;DHT22;32377;52.182;5.398;2023-08-08T14:15:11;20.00;91.40
46652;DHT22;32377;52.182;5.398;2023-08-08T14:17:37;20.10;90.10
46652;DHT22;32377;52.182;5.398;2023-08-08T14:20:03;20.00;90.40
46652;DHT22;32377;52.182;5.398;2023-08-08T14:22:30;19.90;91.40
46652;DHT22;32377;52.182;5.398;2023-08-08T14:24:56;20.00;91.30
46652;DHT22;32377;52.182;5.398;2023-08-08T14:27:21;19.70;90.40
46652;DHT22;32377;52.182;5.398;2023-08-08T14:29:47;19.60;91.30
46652;DHT22;32377;52.182;5.398;2023-08-08T14:32:13;19.50;91.60
46652;DHT22;32377;52.182;5.398;2023-08-08T14:34:38;19.30;91.70
46652;DHT22;32377;52.182;5.398;2023-08-08T14:37:06;19.30;92.00
46652;DHT22;32377;52.182;5.398;2023-08-08T14:39:31;19.20;92.30
46652;DHT22;32377;52.182;5.398;2023-08-08T14:41:58;19.50;93.20
46652;DHT22;32377;52.182;5.398;2023-08-08T14:44:24;19.70;91.80
46652;DHT22;32377;52.182;5.398;2023-08-08T14:46:49;19.80;91.30
46652;DHT22;32377;52.182;5.398;2023-08-08T14:49:15;19.90;91.00
46652;DHT22;32377;52.182;5.398;2023-08-08T14:51:41;19.80;90.70
46652;DHT22;32377;52.182;5.398;2023-08-08T14:54:07;19.70;90.20
46652;DHT22;32377;52.182;5.398;2023-08-08T14:56:32;19.70;90.10
46652;DHT22;32377;52.182;5.398;2023-08-08T14:58:58;19.70;90.20
46652;DHT22;32377;52.182;5.398;2023-08-08T15:01:23;19.70;90.00
46652;DHT22;32377;52.182;5.398;2023-08-08T15:03:50;19.70;90.40
46652;DHT22;32377;52.182;5.398;2023-08-08T15:06:16;19.60;90.60
46652;DHT22;32377;52.182;5.398;2023-08-08T15:08:42;19.70;91.40
46652;DHT22;32377;52.182;5.398;2023-08-08T15:11:08;19.80;90.90
46652;DHT22;32377;52.182;5.398;2023-08-08T15:13:34;19.80;90.80
46652;DHT22;32377;52.182;5.398;2023-08-08T15:16:00;19.90;90.20
46652;DHT22;32377;52.182;5.398;2023-08-08T15:18:26;20.00;90.90
46652;DHT22;32377;52.182;5.398;2023-08-08T15:20:51;20.00;90.30
46652;DHT22;32377;52.182;5.398;2023-08-08T15:23:17;20.00;88.70
46652;DHT22;32377;52.182;5.398;2023-08-08T15:25:43;20.00;90.00
46652;DHT22;32377;52.182;5.398;2023-08-08T15:28:09;20.00;89.50
46652;DHT22;32377;52.182;5.398;2023-08-08T15:30:35;20.00;89.30